Time,TemperatureF,DewpointF,PressureIn,WindDirection,WindDirectionDegrees,WindSpeedMPH,WindSpeedGustMPH,Humidity,HourlyPrecipIn,Conditions,Clouds,dailyrainin,SolarRadiationWatts/m^2,SoftwareType,DateUTC
2013-04-05 00:08:00,36.9,21.0,29.95,South,173,8.0,20.0,52,0.00,,,0.00,0,weatherlink.com 1.10,2013-04-05 04:08:00,
2013-04-05 00:23:00,36.8,20.0,29.94,South,176,4.0,19.0,52,0.00,,,0.00,0,weatherlink.com 1.10,2013-04-05 04:23:00,
2013-04-05 00:38:00,36.4,21.0,29.93,West,274,0.0,19.0,53,0.00,,,0.00,0,weatherlink.com 1.10,2013-04-05 04:38:00,
2013-04-05 00:53:00,36.1,20.0,29.93,South,175,1.0,14.0,53,0.00,,,0.00,0,weatherlink.com 1.10,2013-04-05 04:53:00,
2013-04-05 01:08:00,36.0,20.0,29.93,SSW,194,7.0,16.0,53,0.00,,,0.00,0,weatherlink.com 1.10,2013-04-05 05:08:00,
2013-04-05 01:23:00,35.9,21.0,29.92,SSW,200,1.0,15.0,54,0.00,,,0.00,0,weatherlink.com 1.10,2013-04-05 05:23:00,
2013-04-05 01:38:00,35.6,20.0,29.91,South,185,1.0,15.0,54,0.00,,,0.00,0,weatherlink.com 1.10,2013-04-05 05:38:00,
2013-04-05 01:53:00,35.3,20.0,29.91,SSE,153,6.0,13.0,55,0.00,,,0.00,0,weatherlink.com 1.10,2013-04-05 05:53:00,
2013-04-05 02:08:00,35.1,21.0,29.90,South,173,9.0,14.0,56,0.00,,,0.00,0,weatherlink.com 1.10,2013-04-05 06:08:00,
2013-04-05 02:23:00,34.6,20.0,29.89,NW,308,4.0,11.0,56,0.00,,,0.00,0,weatherlink.com 1.10,2013-04-05 06:23:00,
2013-04-05 02:38:00,34.4,20.0,29.89,West,262,0.0,16.0,56,0.00,,,0.00,0,weatherlink.com 1.10,2013-04-05 06:38:00,
2013-04-05 02:53:00,34.4,20.0,29.88,SE,136,3.0,8.0,55,0.00,,,0.00,0,weatherlink.com 1.10,2013-04-05 06:53:00,
2013-04-05 03:53:00,34.2,17.0,29.87,SSE,164,6.0,11.0,49,0.00,,,0.00,0,weatherlink.com 1.10,2013-04-05 07:53:00,
2013-04-05 04:09:00,35.1,16.0,29.86,SW,227,0.0,7.0,45,0.00,,,0.00,0,weatherlink.com 1.10,2013-04-05 08:09:00,
2013-04-05 04:39:00,35.9,17.0,29.86,West,275,1.0,15.0,46,0.00,,,0.00,0,weatherlink.com 1.10,2013-04-05 08:39:00,
2013-04-05 05:09:00,33.9,16.0,29.85,West,279,1.0,15.0,48,0.00,,,0.00,0,weatherlink.com 1.10,2013-04-05 09:09:00,
2013-04-05 05:24:00,32.4,18.0,29.84,ESE,112,2.0,10.0,56,0.00,,,0.00,0,weatherlink.com 1.10,2013-04-05 09:24:00,
2013-04-05 05:39:00,30.8,19.0,29.84,SE,143,4.0,9.0,62,0.00,,,0.00,0,weatherlink.com 1.10,2013-04-05 09:39:00,
2013-04-05 06:09:00,30.3,19.0,29.84,SE,146,6.0,7.0,62,0.00,,,0.00,0,weatherlink.com 1.10,2013-04-05 10:09:00,
2013-04-05 06:24:00,29.7,18.0,29.84,South,171,4.0,6.0,62,0.00,,,0.00,0,weatherlink.com 1.10,2013-04-05 10:24:00,
2013-04-05 06:39:00,29.6,18.0,29.84,SW,217,0.0,5.0,63,0.00,,,0.00,5,weatherlink.com 1.10,2013-04-05 10:39:00,
2013-04-05 06:54:00,29.2,18.0,29.85,SSW,198,0.0,7.0,64,0.00,,,0.00,18,weatherlink.com 1.10,2013-04-05 10:54:00,
2013-04-05 07:09:00,29.1,18.0,29.85,South,181,0.0,6.0,63,0.00,,,0.00,19,weatherlink.com 1.10,2013-04-05 11:09:00,
2013-04-05 07:25:00,29.3,18.0,29.84,SSW,198,4.0,5.0,63,0.00,,,0.00,40,weatherlink.com 1.10,2013-04-05 11:25:00,
2013-04-05 07:41:00,30.1,18.0,29.84,SSW,198,1.0,8.0,62,0.00,,,0.00,90,weatherlink.com 1.10,2013-04-05 11:41:00,
2013-04-05 07:55:00,30.9,18.0,29.83,South,180,3.0,5.0,60,0.00,,,0.00,279,weatherlink.com 1.10,2013-04-05 11:55:00,
2013-04-05 08:11:00,32.4,19.0,29.84,SSE,161,0.0,8.0,58,0.00,,,0.00,220,weatherlink.com 1.10,2013-04-05 12:11:00,
2013-04-05 08:26:00,34.4,17.0,29.82,South,188,4.0,9.0,50,0.00,,,0.00,292,weatherlink.com 1.10,2013-04-05 12:26:00,
2013-04-05 08:41:00,36.0,17.0,29.82,ESE,111,0.0,11.0,46,0.00,,,0.00,237,weatherlink.com 1.10,2013-04-05 12:41:00,
2013-04-05 09:11:00,38.4,18.0,29.81,WNW,292,1.0,11.0,43,0.00,,,0.00,439,weatherlink.com 1.10,2013-04-05 13:11:00,
2013-04-05 09:26:00,38.8,16.0,29.80,West,267,2.0,10.0,40,0.00,,,0.00,475,weatherlink.com 1.10,2013-04-05 13:26:00,
2013-04-05 09:41:00,38.9,17.0,29.80,SW,232,2.0,20.0,42,0.00,,,0.00,478,weatherlink.com 1.10,2013-04-05 13:41:00,
2013-04-05 09:56:00,39.2,18.0,29.80,SSW,192,7.0,13.0,42,0.00,,,0.00,432,weatherlink.com 1.10,2013-04-05 13:56:00,
2013-04-05 10:12:00,41.1,19.0,29.79,SSE,161,0.0,7.0,41,0.00,,,0.00,694,weatherlink.com 1.10,2013-04-05 14:12:00,
2013-04-05 10:27:00,41.5,18.0,29.79,SSW,198,3.0,11.0,39,0.00,,,0.00,722,weatherlink.com 1.10,2013-04-05 14:27:00,
2013-04-05 10:42:00,42.7,17.0,29.78,NW,319,5.0,10.0,36,0.00,,,0.00,756,weatherlink.com 1.10,2013-04-05 14:42:00,
2013-04-05 10:57:00,43.1,17.0,29.78,WNW,296,4.0,7.0,35,0.00,,,0.00,780,weatherlink.com 1.10,2013-04-05 14:57:00,
2013-04-05 11:12:00,44.1,19.0,29.77,SSE,157,5.0,6.0,36,0.00,,,0.00,805,weatherlink.com 1.10,2013-04-05 15:12:00,
2013-04-05 11:27:00,42.8,20.0,29.77,NNW,338,7.0,10.0,40,0.00,,,0.00,819,weatherlink.com 1.10,2013-04-05 15:27:00,
2013-04-05 11:43:00,42.7,20.0,29.77,NW,322,5.0,11.0,40,0.00,,,0.00,847,weatherlink.com 1.10,2013-04-05 15:43:00,
2013-04-05 11:58:00,43.6,19.0,29.76,SSE,162,0.0,14.0,38,0.00,,,0.00,882,weatherlink.com 1.10,2013-04-05 15:58:00,
2013-04-05 12:13:00,44.2,21.0,29.76,WNW,302,0.0,18.0,40,0.00,,,0.00,882,weatherlink.com 1.10,2013-04-05 16:13:00,
2013-04-05 12:28:00,43.8,20.0,29.75,SSW,204,2.0,12.0,39,0.00,,,0.00,893,weatherlink.com 1.10,2013-04-05 16:28:00,
2013-04-05 12:43:00,44.1,20.0,29.74,WNW,292,6.0,11.0,39,0.00,,,0.00,889,weatherlink.com 1.10,2013-04-05 16:43:00,
2013-04-05 13:00:00,43.6,22.0,29.73,WNW,300,3.0,12.0,42,0.00,,,0.00,925,weatherlink.com 1.10,2013-04-05 17:00:00,
2013-04-05 13:29:00,43.6,25.0,29.72,North,355,2.0,10.0,48,0.00,,,0.00,942,weatherlink.com 1.10,2013-04-05 17:29:00,
2013-04-05 13:44:00,43.7,23.0,29.72,SSE,155,4.0,15.0,45,0.00,,,0.00,944,weatherlink.com 1.10,2013-04-05 17:44:00,
2013-04-05 14:14:00,44.5,24.0,29.70,NNW,329,0.0,16.0,44,0.00,,,0.00,928,weatherlink.com 1.10,2013-04-05 18:14:00,
2013-04-05 14:29:00,44.6,24.0,29.70,NNW,348,0.0,12.0,44,0.00,,,0.00,900,weatherlink.com 1.10,2013-04-05 18:29:00,
2013-04-05 14:46:00,44.4,25.0,29.69,WNW,290,5.0,13.0,46,0.00,,,0.00,865,weatherlink.com 1.10,2013-04-05 18:46:00,
2013-04-05 15:02:00,44.4,25.0,29.68,ENE,61,2.0,9.0,47,0.00,,,0.00,218,weatherlink.com 1.10,2013-04-05 19:02:00,
2013-04-05 15:16:00,44.3,24.0,29.68,NW,304,2.0,15.0,45,0.00,,,0.00,793,weatherlink.com 1.10,2013-04-05 19:16:00,
2013-04-05 15:31:00,44.5,22.0,29.68,NNW,327,2.0,21.0,41,0.00,,,0.00,773,weatherlink.com 1.10,2013-04-05 19:31:00,
2013-04-05 15:47:00,43.8,22.0,29.68,WNW,294,0.0,15.0,42,0.00,,,0.00,708,weatherlink.com 1.10,2013-04-05 19:47:00,
2013-04-05 16:01:00,42.8,22.0,29.68,NW,313,6.0,10.0,44,0.00,,,0.00,148,weatherlink.com 1.10,2013-04-05 20:01:00,
2013-04-05 16:31:00,43.4,21.0,29.67,NW,315,0.0,16.0,41,0.00,,,0.00,142,weatherlink.com 1.10,2013-04-05 20:31:00,
2013-04-05 17:16:00,41.7,22.0,29.69,NW,319,5.0,18.0,46,0.00,,,0.00,84,weatherlink.com 1.10,2013-04-05 21:16:00,
2013-04-05 17:47:00,41.1,21.0,29.70,NNW,333,9.0,11.0,45,0.00,,,0.00,81,weatherlink.com 1.10,2013-04-05 21:47:00,
2013-04-05 18:17:00,39.4,21.0,29.73,NNW,340,10.0,13.0,48,0.00,,,0.00,39,weatherlink.com 1.10,2013-04-05 22:17:00,
2013-04-05 18:32:00,38.8,20.0,29.73,WNW,287,9.0,16.0,48,0.00,,,0.00,33,weatherlink.com 1.10,2013-04-05 22:32:00,
2013-04-05 18:47:00,38.3,20.0,29.74,WNW,288,0.0,18.0,49,0.00,,,0.00,19,weatherlink.com 1.10,2013-04-05 22:47:00,
2013-04-05 19:02:00,37.3,21.0,29.75,NW,326,5.0,16.0,51,0.00,,,0.00,14,weatherlink.com 1.10,2013-04-05 23:02:00,
2013-04-05 19:17:00,36.8,22.0,29.76,West,276,4.0,13.0,55,0.00,,,0.00,5,weatherlink.com 1.10,2013-04-05 23:17:00,
2013-04-05 19:32:00,35.4,24.0,29.78,WNW,299,0.0,14.0,63,0.00,,,0.00,0,weatherlink.com 1.10,2013-04-05 23:32:00,
2013-04-05 19:48:00,34.1,24.0,29.79,NNW,331,0.0,22.0,66,0.00,,,0.00,0,weatherlink.com 1.10,2013-04-05 23:48:00,
2013-04-05 20:03:00,33.2,24.0,29.80,NW,322,11.0,14.0,68,0.00,,,0.00,0,weatherlink.com 1.10,2013-04-06 00:03:00,
2013-04-05 20:33:00,32.3,23.0,29.81,NNE,19,7.0,25.0,68,0.00,,,0.00,0,weatherlink.com 1.10,2013-04-06 00:33:00,
2013-04-05 20:48:00,31.8,23.0,29.82,NW,319,4.0,16.0,70,0.00,,,0.00,0,weatherlink.com 1.10,2013-04-06 00:48:00,
2013-04-05 21:49:00,31.0,20.0,29.84,NW,307,0.0,15.0,65,0.00,,,0.00,0,weatherlink.com 1.10,2013-04-06 01:49:00,
2013-04-05 22:04:00,30.7,21.0,29.84,NW,315,5.0,12.0,66,0.00,,,0.00,0,weatherlink.com 1.10,2013-04-06 02:04:00,
2013-04-05 22:19:00,30.2,21.0,29.84,North,360,4.0,12.0,68,0.00,,,0.00,0,weatherlink.com 1.10,2013-04-06 02:19:00,
2013-04-05 22:34:00,30.0,20.0,29.84,NW,310,4.0,20.0,66,0.00,,,0.00,0,weatherlink.com 1.10,2013-04-06 02:34:00,
2013-04-05 23:04:00,29.3,20.0,29.84,NNW,327,5.0,16.0,68,0.00,,,0.00,0,weatherlink.com 1.10,2013-04-06 03:04:00,
2013-04-05 23:34:00,28.5,19.0,29.85,WNW,297,4.0,18.0,67,0.00,,,0.00,0,weatherlink.com 1.10,2013-04-06 03:34:00,
2013-04-05 23:49:00,28.1,18.0,29.85,NNW,337,0.0,19.0,66,0.00,,,0.00,0,weatherlink.com 1.10,2013-04-06 03:49:00,